createdAt,value
2023-04-01T00:01:39.457Z,93662.13
2023-04-01T00:04:43.534Z,93669.19
2023-04-01T00:07:47.709Z,93672.00
2023-04-01T00:10:52.027Z,93669.25
2023-04-01T00:13:56.181Z,93672.69
2023-04-01T00:16:59.785Z,93673.81
2023-04-01T00:20:04.766Z,93664.91
2023-04-01T00:23:08.422Z,93666.38
2023-04-01T00:26:13.705Z,93657.16
2023-04-01T00:29:18.124Z,93661.06
2023-04-01T00:32:21.798Z,93669.50
2023-04-01T00:35:25.994Z,93676.00
2023-04-01T00:38:29.158Z,93670.91
2023-04-01T00:41:33.181Z,93664.47
2023-04-01T00:44:39.228Z,93667.50
2023-04-01T00:47:43.451Z,93667.00
2023-04-01T00:50:52.226Z,93674.75
2023-04-01T00:53:59.424Z,93669.63
2023-04-01T00:57:08.593Z,93663.88
2023-04-01T01:00:16.565Z,93662.19
2023-04-01T01:03:20.506Z,93654.19
2023-04-01T01:07:11.801Z,93669.66
2023-04-01T01:10:41.701Z,93673.56
2023-04-01T01:14:05.225Z,93674.78
2023-04-01T01:17:26.136Z,93673.84
2023-04-01T01:21:07.141Z,93679.00
2023-04-01T01:24:24.971Z,93681.00
2023-04-01T01:27:30.463Z,93708.06
2023-04-01T01:30:50.433Z,93708.19
2023-04-01T01:34:18.386Z,93720.28
2023-04-01T01:37:25.461Z,93729.16
2023-04-01T01:40:30.772Z,93743.53
2023-04-01T01:43:54.597Z,93735.94
2023-04-01T01:46:58.977Z,93732.22
2023-04-01T01:50:02.913Z,93748.06
2023-04-01T01:53:11.696Z,93753.44
2023-04-01T01:56:15.456Z,93761.66
2023-04-01T01:59:23.180Z,93761.75
2023-04-01T02:02:28.783Z,93763.66
2023-04-01T02:05:33.949Z,93767.84
2023-04-01T02:08:51.375Z,93772.91
2023-04-01T02:12:07.545Z,93787.31
2023-04-01T02:15:16.623Z,93794.72
2023-04-01T02:18:22.163Z,93802.84
2023-04-01T02:21:29.888Z,93807.38
2023-04-01T02:24:37.661Z,93807.22
2023-04-01T02:27:43.467Z,93811.69
2023-04-01T02:30:46.727Z,93827.97
2023-04-01T02:33:51.189Z,93825.31
2023-04-01T02:36:56.958Z,93833.00
2023-04-01T02:40:04.446Z,93834.66
2023-04-01T02:43:08.045Z,93834.81
2023-04-01T02:46:12.440Z,93828.16
2023-04-01T02:49:15.485Z,93828.06
2023-04-01T02:52:20.756Z,93819.81
2023-04-01T02:55:24.110Z,93824.59
2023-04-01T02:58:27.074Z,93813.34
2023-04-01T03:01:31.316Z,93802.44
2023-04-01T03:04:34.590Z,93801.13
2023-04-01T03:07:37.947Z,93804.31
2023-04-01T03:10:41.664Z,93802.81
2023-04-01T03:13:45.261Z,93801.66
2023-04-01T03:16:48.629Z,93802.19
2023-04-01T03:23:20.952Z,93802.25
2023-04-01T03:26:24.589Z,93804.09
2023-04-01T03:29:27.665Z,93812.59
2023-04-01T03:32:30.750Z,93804.25
2023-04-01T03:35:34.595Z,93810.19
2023-04-01T03:38:38.401Z,93794.81
2023-04-01T03:41:42.092Z,93794.88
2023-04-01T03:44:45.366Z,93784.63
2023-04-01T03:47:49.118Z,93801.75
2023-04-01T03:50:53.492Z,93795.97
2023-04-01T03:53:57.614Z,93792.81
2023-04-01T03:57:01.640Z,93800.41
2023-04-01T04:00:06.749Z,93796.22
2023-04-01T04:03:16.568Z,93795.00
2023-04-01T04:06:20.987Z,93792.28
2023-04-01T04:09:25.353Z,93789.84
2023-04-01T04:12:29.353Z,93787.97
2023-04-01T04:15:33.176Z,93792.91
2023-04-01T04:18:37.799Z,93794.63
2023-04-01T04:21:42.731Z,93804.09
2023-04-01T04:24:46.174Z,93817.97
2023-04-01T04:27:50.975Z,93810.47
2023-04-01T04:30:55.554Z,93815.16
2023-04-01T04:34:01.890Z,93809.19
2023-04-01T04:37:10.003Z,93810.34
2023-04-01T04:40:14.088Z,93809.28
2023-04-01T04:43:19.277Z,93820.00
2023-04-01T04:46:23.146Z,93806.81
2023-04-01T04:49:31.053Z,93809.97
2023-04-01T04:52:34.359Z,93805.63
2023-04-01T04:55:37.285Z,93814.41
2023-04-01T04:59:19.463Z,93817.97
2023-04-01T05:02:32.769Z,93817.44
2023-04-01T05:05:35.952Z,93810.13
2023-04-01T05:08:41.505Z,93811.25
2023-04-01T05:11:46.418Z,93827.97
2023-04-01T05:14:49.858Z,93820.75
2023-04-01T05:17:53.918Z,93814.75
2023-04-01T05:20:57.705Z,93815.59
2023-04-01T05:24:01.516Z,93833.19
2023-04-01T05:27:05.934Z,93831.00
2023-04-01T05:30:12.223Z,93837.03
2023-04-01T05:33:36.201Z,93843.13
2023-04-01T05:36:41.734Z,93853.88
2023-04-01T05:39:44.916Z,93836.69
2023-04-01T05:42:48.790Z,93834.81
2023-04-01T05:45:53.558Z,93833.81
2023-04-01T05:49:13.242Z,93850.91
2023-04-01T05:52:17.964Z,93851.59
2023-04-01T05:55:21.567Z,93845.31
2023-04-01T05:58:26.868Z,93846.81
2023-04-01T06:01:30.083Z,93851.34
2023-04-01T06:04:41.467Z,93858.88
2023-04-01T06:07:46.805Z,93857.50
2023-04-01T06:11:01.469Z,93858.75
2023-04-01T06:14:23.495Z,93856.44
2023-04-01T06:17:44.926Z,93849.50
2023-04-01T06:21:25.497Z,93854.91
2023-04-01T06:24:52.409Z,93860.84
2023-04-01T06:28:08.979Z,93856.38
2023-04-01T06:31:19.197Z,93867.00
2023-04-01T06:34:49.050Z,93872.13
2023-04-01T06:38:06.570Z,93867.06
2023-04-01T06:41:51.698Z,93856.13
2023-04-01T06:45:09.613Z,93859.16
2023-04-01T06:48:53.604Z,93865.75
2023-04-01T06:52:34.117Z,93864.09
2023-04-01T06:56:02.242Z,93858.03
2023-04-01T06:59:31.902Z,93844.69
2023-04-01T07:02:50.446Z,93850.47
2023-04-01T07:05:55.675Z,93866.81
2023-04-01T07:09:06.033Z,93877.63
2023-04-01T07:12:32.836Z,93876.16
2023-04-01T07:16:07.010Z,93879.84
2023-04-01T07:19:20.761Z,93858.78
2023-04-01T07:22:53.834Z,93868.50
2023-04-01T07:26:12.821Z,93875.56
2023-04-01T07:29:31.233Z,93882.69
2023-04-01T07:32:53.727Z,93872.47
2023-04-01T07:36:33.558Z,93872.13
2023-04-01T07:40:00.301Z,93877.94
2023-04-01T07:43:48.549Z,93883.25
2023-04-01T07:47:15.514Z,93892.41
2023-04-01T07:50:45.979Z,93887.94
2023-04-01T07:54:04.210Z,93895.28
2023-04-01T07:57:17.104Z,93890.34
2023-04-01T08:00:39.455Z,93885.00
2023-04-01T08:04:30.279Z,93884.69
2023-04-01T08:07:51.622Z,93880.84
2023-04-01T08:11:38.414Z,93877.69
2023-04-01T08:15:28.744Z,93881.22
2023-04-01T08:19:09.042Z,93870.09
2023-04-01T08:22:22.106Z,93875.75
2023-04-01T08:25:32.549Z,93877.47
2023-04-01T08:28:55.333Z,93878.47
2023-04-01T08:32:08.655Z,93880.66
2023-04-01T08:35:34.280Z,93892.44
2023-04-01T08:39:07.421Z,93901.53
2023-04-01T08:42:48.704Z,93895.16
2023-04-01T08:46:28.967Z,93912.34
2023-04-01T08:49:41.827Z,93913.25
2023-04-01T08:53:01.543Z,93923.66
2023-04-01T08:56:24.739Z,93924.16
2023-04-01T08:59:48.895Z,93930.63
2023-04-01T09:03:42.368Z,93918.91
2023-04-01T09:07:12.835Z,93939.66
2023-04-01T09:10:38.612Z,93941.91
2023-04-01T09:14:34.995Z,93925.91
2023-04-01T09:18:47.429Z,93914.00
2023-04-01T09:22:06.300Z,93909.34
2023-04-01T09:25:44.142Z,93903.91
2023-04-01T09:28:56.462Z,93914.00
2023-04-01T09:32:15.026Z,93909.97
2023-04-01T09:35:39.825Z,93901.69
2023-04-01T09:38:59.034Z,93903.34
2023-04-01T09:42:16.772Z,93918.16
2023-04-01T09:45:45.267Z,93914.16
2023-04-01T09:48:57.254Z,93923.56
2023-04-01T09:52:25.819Z,93924.09
2023-04-01T09:55:54.399Z,93929.44
2023-04-01T09:59:10.495Z,93939.31
2023-04-01T10:02:56.981Z,93930.41
2023-04-01T10:06:35.290Z,93942.06
2023-04-01T10:10:15.607Z,93943.53
2023-04-01T10:13:51.161Z,93949.44
2023-04-01T10:17:19.360Z,93943.00
2023-04-01T10:20:41.788Z,93949.66
2023-04-01T10:24:04.685Z,93954.25
2023-04-01T10:27:46.232Z,93965.66
2023-04-01T10:31:30.689Z,93968.69
2023-04-01T10:35:11.171Z,93963.91
2023-04-01T10:38:17.555Z,93958.47
2023-04-01T10:41:42.849Z,93968.06
2023-04-01T10:45:46.463Z,93981.72
2023-04-01T10:49:09.253Z,93992.31
2023-04-01T10:52:45.190Z,94007.34
2023-04-01T10:55:54.493Z,94016.16
2023-04-01T11:00:10.179Z,94031.91
2023-04-01T11:03:41.664Z,94027.19
2023-04-01T11:07:29.663Z,94028.63
2023-04-01T11:10:52.104Z,94032.28
2023-04-01T11:14:07.241Z,94021.34
2023-04-01T11:17:17.442Z,94033.81
2023-04-01T11:20:54.417Z,94038.97
2023-04-01T11:24:31.025Z,94055.41
2023-04-01T11:28:28.483Z,94057.97
2023-04-01T11:31:59.627Z,94051.78
2023-04-01T11:35:04.763Z,94063.47
2023-04-01T11:38:35.361Z,94055.09
2023-04-01T11:42:33.636Z,94063.50
2023-04-01T11:46:13.469Z,94066.75
2023-04-01T11:49:28.691Z,94060.91
2023-04-01T11:53:12.617Z,94052.53
2023-04-01T11:56:16.632Z,94052.16
2023-04-01T12:00:12.309Z,94056.16
2023-04-01T12:03:38.366Z,94063.09
2023-04-01T12:06:53.984Z,94064.91
2023-04-01T12:10:23.512Z,94067.09
2023-04-01T12:13:33.317Z,94068.50
2023-04-01T12:17:01.690Z,94065.50
2023-04-01T12:20:38.157Z,94075.31
2023-04-01T12:23:50.503Z,94083.34
2023-04-01T12:27:22.765Z,94080.00
2023-04-01T12:30:37.698Z,94078.16
2023-04-01T12:33:52.787Z,94084.34
2023-04-01T12:37:15.743Z,94086.50
2023-04-01T12:40:40.575Z,94076.59
2023-04-01T12:44:04.479Z,94098.41
2023-04-01T12:47:20.871Z,94111.16
2023-04-01T12:50:33.594Z,94112.28
2023-04-01T12:53:53.829Z,94108.25
2023-04-01T12:56:56.857Z,94124.31
2023-04-01T13:00:18.630Z,94129.06
2023-04-01T13:03:27.812Z,94122.88
2023-04-01T13:06:53.116Z,94120.38
2023-04-01T13:10:04.584Z,94144.41
2023-04-01T13:13:23.397Z,94148.78
2023-04-01T13:16:32.776Z,94154.66
2023-04-01T13:20:02.429Z,94168.09
2023-04-01T13:23:07.759Z,94165.50
2023-04-01T13:26:36.668Z,94166.84
2023-04-01T13:29:42.427Z,94180.59
2023-04-01T13:32:49.183Z,94191.59
2023-04-01T13:36:28.971Z,94187.56
2023-04-01T13:39:48.948Z,94199.50
2023-04-01T13:43:09.202Z,94202.44
2023-04-01T13:46:51.958Z,94208.97
2023-04-01T13:50:04.768Z,94208.13
2023-04-01T13:53:33.929Z,94212.53
2023-04-01T13:56:51.647Z,94211.69
2023-04-01T14:00:32.733Z,94208.75
2023-04-01T14:04:03.483Z,94217.53
2023-04-01T14:07:07.331Z,94224.72
2023-04-01T14:10:19.978Z,94213.44
2023-04-01T14:13:44.965Z,94205.06
2023-04-01T14:17:00.901Z,94211.13
2023-04-01T14:20:26.462Z,94219.75
2023-04-01T14:23:41.807Z,94242.38
2023-04-01T14:26:57.099Z,94235.97
2023-04-01T14:30:38.603Z,94241.84
2023-04-01T14:33:59.709Z,94249.88
2023-04-01T14:37:33.696Z,94249.19
2023-04-01T14:41:08.513Z,94251.41
2023-04-01T14:44:39.124Z,94259.06
2023-04-01T14:47:52.761Z,94260.75
2023-04-01T14:50:59.725Z,94266.19
2023-04-01T14:54:31.783Z,94271.22
2023-04-01T14:57:36.841Z,94269.34
2023-04-01T15:00:52.088Z,94281.34
2023-04-01T15:04:37.533Z,94289.97
2023-04-01T15:08:01.561Z,94295.75
2023-04-01T15:11:08.841Z,94307.53
2023-04-01T15:15:00.397Z,94312.41
2023-04-01T15:18:13.998Z,94315.59
2023-04-01T15:21:29.609Z,94306.16
2023-04-01T15:24:49.817Z,94295.81
2023-04-01T15:28:32.566Z,94304.09
2023-04-01T15:31:51.917Z,94294.47
2023-04-01T15:35:13.031Z,94296.91
2023-04-01T15:38:28.734Z,94303.09
2023-04-01T15:42:05.696Z,94311.34
2023-04-01T15:45:37.284Z,94306.66
2023-04-01T15:48:54.695Z,94318.94
2023-04-01T15:52:10.208Z,94336.28
2023-04-01T15:56:01.260Z,94330.47
2023-04-01T15:59:34.302Z,94341.72
2023-04-01T16:03:02.938Z,94348.06
2023-04-01T16:06:32.882Z,94342.78
2023-04-01T16:09:58.948Z,94342.44
2023-04-01T16:13:06.308Z,94355.03
2023-04-01T16:16:09.163Z,94361.06
2023-04-01T16:19:33.540Z,94363.84
2023-04-01T16:22:42.168Z,94368.47
2023-04-01T16:26:03.866Z,94367.28
2023-04-01T16:29:10.679Z,94375.50
2023-04-01T16:32:23.471Z,94383.81
2023-04-01T16:35:49.024Z,94381.81
2023-04-01T16:38:59.233Z,94392.97
2023-04-01T16:42:08.606Z,94401.25
2023-04-01T16:45:28.576Z,94399.06
2023-04-01T16:48:53.746Z,94398.53
2023-04-01T16:52:18.297Z,94414.38
2023-04-01T16:55:23.084Z,94397.25
2023-04-01T16:58:28.423Z,94404.94
2023-04-01T17:02:02.820Z,94416.91
2023-04-01T17:05:08.355Z,94418.84
2023-04-01T17:08:41.194Z,94416.56
2023-04-01T17:12:15.340Z,94420.78
2023-04-01T17:15:41.255Z,94419.19
2023-04-01T17:19:16.039Z,94423.13
2023-04-01T17:22:50.004Z,94430.59
2023-04-01T17:26:12.717Z,94427.84
2023-04-01T17:29:27.441Z,94421.16
2023-04-01T17:32:54.018Z,94416.97
2023-04-01T17:36:06.696Z,94425.66
2023-04-01T17:39:58.989Z,94430.16
2023-04-01T17:43:35.289Z,94432.38
2023-04-01T17:46:47.121Z,94429.53
2023-04-01T17:50:26.532Z,94423.81
2023-04-01T17:53:36.215Z,94423.47
2023-04-01T17:57:04.638Z,94437.22
2023-04-01T18:00:22.314Z,94427.09
2023-04-01T18:03:47.020Z,94429.63
2023-04-01T18:07:25.250Z,94428.22
2023-04-01T18:10:43.176Z,94411.13
2023-04-01T18:14:22.979Z,94416.09
2023-04-01T18:17:46.693Z,94415.34
2023-04-01T18:21:17.201Z,94404.41
2023-04-01T18:24:45.583Z,94401.56
2023-04-01T18:27:54.214Z,94402.72
2023-04-01T18:31:09.688Z,94397.28
2023-04-01T18:34:49.714Z,94393.34
2023-04-01T18:37:57.205Z,94385.91
2023-04-01T18:41:10.000Z,94376.59
2023-04-01T18:44:36.664Z,94369.31
2023-04-01T18:48:03.514Z,94375.44
2023-04-01T18:51:27.257Z,94391.38
2023-04-01T18:55:04.754Z,94385.69
2023-04-01T18:58:23.927Z,94394.16
2023-04-01T19:02:06.912Z,94399.06
2023-04-01T19:05:20.503Z,94394.00
2023-04-01T19:08:41.585Z,94401.03
2023-04-01T19:12:21.782Z,94400.38
2023-04-01T19:15:56.404Z,94408.06
2023-04-01T19:19:43.865Z,94413.69
2023-04-01T19:23:16.276Z,94391.88
2023-04-01T19:26:49.642Z,94398.25
2023-04-01T19:30:11.523Z,94391.88
2023-04-01T19:33:36.101Z,94401.84
2023-04-01T19:36:39.742Z,94402.84
2023-04-01T19:40:04.485Z,94407.81
2023-04-01T19:43:13.546Z,94420.44
2023-04-01T19:46:52.289Z,94416.28
2023-04-01T19:50:01.406Z,94436.47
2023-04-01T19:53:50.147Z,94432.97
2023-04-01T19:57:00.479Z,94427.91
2023-04-01T20:00:10.034Z,94435.91
2023-04-01T20:03:41.059Z,94425.69
2023-04-01T20:07:03.557Z,94438.28
2023-04-01T20:10:12.278Z,94436.78
2023-04-01T20:13:50.968Z,94436.47
2023-04-01T20:17:16.687Z,94440.88
2023-04-01T20:20:26.110Z,94448.28
2023-04-01T20:23:44.878Z,94463.16
2023-04-01T20:26:56.562Z,94460.63
2023-04-01T20:30:41.535Z,94462.00
2023-04-01T20:34:09.241Z,94465.94
2023-04-01T20:37:49.391Z,94463.41
2023-04-01T20:41:17.023Z,94443.59
2023-04-01T20:44:29.992Z,94451.59
2023-04-01T20:47:54.165Z,94442.44
2023-04-01T20:51:06.839Z,94450.44
2023-04-01T20:54:29.390Z,94442.41
2023-04-01T20:58:07.370Z,94435.16
2023-04-01T21:01:34.990Z,94431.44
2023-04-01T21:05:12.567Z,94419.75
2023-04-01T21:08:46.007Z,94447.25
2023-04-01T21:12:23.673Z,94446.03
2023-04-01T21:15:42.034Z,94457.50
2023-04-01T21:19:00.971Z,94458.53
2023-04-01T21:22:22.841Z,94454.00
2023-04-01T21:25:41.685Z,94460.00
2023-04-01T21:29:20.746Z,94460.63
2023-04-01T21:32:40.141Z,94458.41
2023-04-01T21:36:11.018Z,94477.94
2023-04-01T21:39:50.531Z,94466.84
2023-04-01T21:43:11.817Z,94469.81
2023-04-01T21:46:43.702Z,94485.81
2023-04-01T21:49:53.239Z,94480.00
2023-04-01T21:53:05.859Z,94483.28
2023-04-01T21:56:45.262Z,94493.50
2023-04-01T22:00:07.426Z,94506.78
2023-04-01T22:03:33.499Z,94524.28
2023-04-01T22:06:48.845Z,94534.91
2023-04-01T22:09:58.891Z,94549.56
2023-04-01T22:13:18.472Z,94548.41
2023-04-01T22:16:59.833Z,94553.44
2023-04-01T22:20:18.209Z,94535.59
2023-04-01T22:23:45.492Z,94554.56
2023-04-01T22:27:00.649Z,94566.88
2023-04-01T22:30:34.699Z,94583.22
2023-04-01T22:34:03.057Z,94579.44
2023-04-01T22:37:27.630Z,94576.03
2023-04-01T22:40:55.981Z,94585.28
2023-04-01T22:44:00.113Z,94585.47
2023-04-01T22:47:41.424Z,94572.19
2023-04-01T22:51:02.928Z,94566.94
2023-04-01T22:54:28.962Z,94563.13
2023-04-01T22:57:32.072Z,94545.00
2023-04-01T23:00:47.111Z,94552.69
2023-04-01T23:03:53.191Z,94541.13
2023-04-01T23:07:01.746Z,94529.94
2023-04-01T23:10:14.129Z,94526.22
2023-04-01T23:13:24.056Z,94526.19
2023-04-01T23:16:42.289Z,94529.38
2023-04-01T23:20:07.421Z,94535.63
2023-04-01T23:23:22.866Z,94536.47
2023-04-01T23:26:37.555Z,94554.75
2023-04-01T23:29:44.916Z,94544.94
2023-04-01T23:32:48.081Z,94550.34
2023-04-01T23:35:56.101Z,94544.88
2023-04-01T23:39:01.296Z,94547.00
2023-04-01T23:42:17.498Z,94549.88
2023-04-01T23:45:22.343Z,94566.72
2023-04-01T23:48:38.278Z,94557.59
2023-04-01T23:51:54.324Z,94551.78
2023-04-01T23:55:15.699Z,94535.13
2023-04-01T23:58:42.373Z,94517.72
